Time;durP1;ratioP1;P1;durP2;ratioP2;P2;SDS_P1;SDS_P2;PMS_P1;PMS_P2;Temp;Humidity;BMP_temperature;BMP_pressure;BME280_temperature;BME280_humidity;BME280_pressure;Samples;Min_cycle;Max_cycle;Signal;HPM_P1;HPM_P2
2022/12/22 03:25:52;;;;;;;;;;;6.10;99.90;;;;;;5046619;28;19928;-58
2022/12/22 03:28:20;;;;;;;;;;;6.00;99.90;;;;;;5040036;28;19929;-58
2022/12/22 03:30:52;;;;;;;;;;;6.00;99.90;;;;;;5052085;28;19925;-58
2022/12/22 03:33:20;;;;;;;;;;;6.10;99.90;;;;;;5051416;28;20395;-58
2022/12/22 03:35:47;;;;;;;;;;;6.10;99.90;;;;;;5054149;28;20021;-58
2022/12/22 03:38:13;;;;;;;;;;;6.10;99.90;;;;;;5050712;28;19932;-58
2022/12/22 03:40:40;;;;;;;;;;;6.10;99.90;;;;;;5050271;28;19935;-58
2022/12/22 03:51:34;;;;;;;;;;;6.10;99.90;;;;;;5045456;28;20388;-57
2022/12/22 03:54:01;;;;;;;;;;;6.10;99.90;;;;;;5052491;28;19925;-58
2022/12/22 03:56:28;;;;;;;;;;;6.10;99.90;;;;;;5047785;28;20296;-57
2022/12/22 03:58:55;;;;;;;;;;;6.10;99.90;;;;;;5056157;28;20017;-58
2022/12/22 04:01:21;;;;;;;;;;;6.10;99.90;;;;;;5042667;28;19929;-58
2022/12/22 04:03:48;;;;;;;;;;;6.10;99.90;;;;;;5047046;28;19960;-58
2022/12/22 04:06:16;;;;;;;;;;;6.00;99.90;;;;;;5057104;28;19932;-58
2022/12/22 04:08:43;;;;;;;;;;;6.10;99.90;;;;;;5060251;28;19925;-57
2022/12/22 04:13:54;;;;;;;;;;;6.10;99.90;;;;;;5048385;28;20023;-58
2022/12/22 04:16:21;;;;;;;;;;;6.10;99.90;;;;;;5052554;28;19931;-59
2022/12/22 04:18:49;;;;;;;;;;;6.00;99.90;;;;;;5055349;28;19932;-58
2022/12/22 04:21:17;;;;;;;;;;;6.10;99.90;;;;;;5052744;28;19954;-58
2022/12/22 04:23:43;;;;;;;;;;;6.00;99.90;;;;;;5053636;28;20288;-57
2022/12/22 04:26:10;;;;;;;;;;;6.10;99.90;;;;;;5050075;28;19924;-58
2022/12/22 04:28:37;;;;;;;;;;;6.10;99.90;;;;;;5047178;28;19975;-58
2022/12/22 04:31:04;;;;;;;;;;;6.10;99.90;;;;;;5052448;28;19971;-58
2022/12/22 04:33:31;;;;;;;;;;;6.10;99.90;;;;;;5050134;28;20475;-58
2022/12/22 04:35:58;;;;;;;;;;;6.10;99.90;;;;;;5052283;28;19932;-57
2022/12/22 04:38:26;;;;;;;;;;;6.10;99.90;;;;;;5053455;28;19951;-57
2022/12/22 04:40:55;;;;;;;;;;;6.10;99.90;;;;;;5052606;28;20023;-57
2022/12/22 04:43:22;;;;;;;;;;;6.10;99.90;;;;;;5055124;28;20035;-58
2022/12/22 04:45:52;;;;;;;;;;;6.10;99.90;;;;;;5056813;28;19925;-58
2022/12/22 04:48:19;;;;;;;;;;;6.10;99.90;;;;;;5029835;28;20343;-58
2022/12/22 04:50:45;;;;;;;;;;;6.10;99.90;;;;;;5051377;28;19932;-58
2022/12/22 04:53:12;;;;;;;;;;;6.10;99.90;;;;;;5054979;28;19925;-58
2022/12/22 04:55:44;;;;;;;;;;;6.20;99.90;;;;;;5050539;28;19932;-58
2022/12/22 04:58:11;;;;;;;;;;;6.10;99.90;;;;;;5060445;28;19924;-58
2022/12/22 05:00:38;;;;;;;;;;;6.20;99.90;;;;;;5058614;28;19978;-58
2022/12/22 05:03:04;;;;;;;;;;;6.20;99.90;;;;;;5060895;28;19928;-58
2022/12/22 05:05:31;;;;;;;;;;;6.20;99.90;;;;;;5046077;28;20284;-58
2022/12/22 05:07:58;;;;;;;;;;;6.20;99.90;;;;;;5057175;28;19931;-57
2022/12/22 05:10:25;;;;;;;;;;;6.20;99.90;;;;;;5054661;28;19960;-57
2022/12/22 05:12:56;;;;;;;;;;;6.20;99.90;;;;;;5053348;28;19925;-58
2022/12/22 05:15:23;;;;;;;;;;;6.30;99.90;;;;;;5051360;28;19933;-58
2022/12/22 05:17:50;;;;;;;;;;;6.30;99.90;;;;;;5056350;28;20413;-57
2022/12/22 05:20:17;;;;;;;;;;;6.30;99.90;;;;;;5055522;28;20291;-58
2022/12/22 05:22:44;;;;;;;;;;;6.30;99.90;;;;;;5048113;28;20379;-57
2022/12/22 05:25:11;;;;;;;;;;;6.30;99.90;;;;;;5049411;28;20319;-57
2022/12/22 05:27:37;;;;;;;;;;;6.30;99.90;;;;;;5056741;28;19932;-59
2022/12/22 05:30:06;;;;;;;;;;;6.30;99.90;;;;;;5060087;28;19928;-59
2022/12/22 05:32:33;;;;;;;;;;;6.30;99.90;;;;;;5053908;28;19933;-58
2022/12/22 05:35:00;;;;;;;;;;;6.30;99.90;;;;;;5052531;28;19978;-58
2022/12/22 05:37:27;;;;;;;;;;;6.30;99.90;;;;;;5048495;28;19929;-58
2022/12/22 05:39:54;;;;;;;;;;;6.30;99.90;;;;;;5059986;28;19925;-58
2022/12/22 05:45:16;;;;;;;;;;;6.40;99.90;;;;;;5100612;27;19922;-58
2022/12/22 05:47:43;;;;;;;;;;;6.40;99.90;;;;;;5070339;28;19929;-59
2022/12/22 05:50:11;;;;;;;;;;;6.40;99.90;;;;;;5062376;28;20291;-59
2022/12/22 05:52:38;;;;;;;;;;;6.40;99.90;;;;;;5070411;28;19931;-59
2022/12/22 05:55:06;;;;;;;;;;;6.40;99.90;;;;;;5074664;28;19932;-59
2022/12/22 05:57:33;;;;;;;;;;;6.40;99.90;;;;;;5078257;28;20023;-59
2022/12/22 05:59:59;;;;;;;;;;;6.40;99.90;;;;;;5063852;28;20398;-59
2022/12/22 06:02:27;;;;;;;;;;;6.40;99.90;;;;;;5075436;28;19928;-59
2022/12/22 06:04:54;;;;;;;;;;;6.40;99.90;;;;;;5073995;28;20022;-59
2022/12/22 06:07:21;;;;;;;;;;;6.40;99.90;;;;;;5064585;28;20031;-59
2022/12/22 06:09:48;;;;;;;;;;;6.40;99.90;;;;;;5063237;28;19955;-59
2022/12/22 06:12:15;;;;;;;;;;;6.40;99.90;;;;;;5070600;28;19924;-59
2022/12/22 06:14:42;;;;;;;;;;;6.40;99.90;;;;;;5067752;28;19931;-59
2022/12/22 06:17:08;;;;;;;;;;;6.40;99.90;;;;;;5070159;28;20018;-59
2022/12/22 06:19:37;;;;;;;;;;;6.40;99.90;;;;;;5077141;28;19925;-59
2022/12/22 06:22:04;;;;;;;;;;;6.40;99.90;;;;;;5069926;28;19979;-59
2022/12/22 06:24:30;;;;;;;;;;;6.40;99.90;;;;;;5060794;28;19924;-59
2022/12/22 06:26:57;;;;;;;;;;;6.40;99.90;;;;;;5064053;28;20036;-60
2022/12/22 06:29:24;;;;;;;;;;;6.50;99.90;;;;;;5068471;28;19926;-59
2022/12/22 06:31:51;;;;;;;;;;;6.40;99.90;;;;;;5067933;28;19924;-58
2022/12/22 06:34:18;;;;;;;;;;;6.50;99.90;;;;;;5064753;28;19936;-59
2022/12/22 06:36:46;;;;;;;;;;;6.50;99.90;;;;;;5069890;28;19954;-59
2022/12/22 06:39:13;;;;;;;;;;;6.40;99.90;;;;;;5054283;28;20392;-59
2022/12/22 06:44:24;;;;;;;;;;;6.50;99.90;;;;;;5060135;28;19929;-59
2022/12/22 06:46:51;;;;;;;;;;;6.50;99.90;;;;;;5067697;28;19932;-59
2022/12/22 06:49:17;;;;;;;;;;;6.50;99.90;;;;;;5062537;28;20386;-59
2022/12/22 06:51:46;;;;;;;;;;;6.50;99.90;;;;;;5057958;28;19956;-59
2022/12/22 06:54:13;;;;;;;;;;;6.50;99.90;;;;;;5061749;28;20560;-58
2022/12/22 06:56:39;;;;;;;;;;;6.50;99.90;;;;;;5041850;28;20366;-58
2022/12/22 06:59:06;;;;;;;;;;;6.50;99.90;;;;;;5043819;28;19928;-59
2022/12/22 07:01:33;;;;;;;;;;;6.50;99.90;;;;;;5044794;28;19986;-59
2022/12/22 07:04:00;;;;;;;;;;;6.50;99.90;;;;;;5043087;28;19925;-59
2022/12/22 07:06:27;;;;;;;;;;;6.50;99.90;;;;;;5048271;28;19960;-59
2022/12/22 07:08:55;;;;;;;;;;;6.50;99.90;;;;;;5048352;28;19947;-59
2022/12/22 07:11:22;;;;;;;;;;;6.50;99.90;;;;;;5043427;28;19928;-59
2022/12/22 07:13:48;;;;;;;;;;;6.50;99.90;;;;;;5035792;28;19932;-59
2022/12/22 07:16:18;;;;;;;;;;;6.50;99.90;;;;;;5042032;28;20241;-59
2022/12/22 07:18:45;;;;;;;;;;;6.50;99.90;;;;;;5058123;28;20012;-59
2022/12/22 07:21:13;;;;;;;;;;;6.50;99.90;;;;;;5043592;28;23368;-59
2022/12/22 07:23:40;;;;;;;;;;;6.50;99.90;;;;;;5041570;28;19936;-59
2022/12/22 07:26:09;;;;;;;;;;;6.50;99.90;;;;;;5050716;28;19924;-59
2022/12/22 07:28:37;;;;;;;;;;;6.50;99.90;;;;;;5049032;28;20040;-59
2022/12/22 07:31:04;;;;;;;;;;;6.50;99.90;;;;;;5047189;28;20415;-59
2022/12/22 07:33:31;;;;;;;;;;;6.50;99.90;;;;;;5042265;28;20022;-59
2022/12/22 07:36:02;;;;;;;;;;;6.50;99.90;;;;;;5049490;28;19948;-59
2022/12/22 07:38:29;;;;;;;;;;;6.50;99.90;;;;;;5046107;28;19932;-59
2022/12/22 07:40:57;;;;;;;;;;;6.50;99.90;;;;;;5071852;28;19932;-59
2022/12/22 07:43:24;;;;;;;;;;;6.50;99.90;;;;;;5051497;28;19928;-59
2022/12/22 07:45:51;;;;;;;;;;;6.50;99.90;;;;;;5045858;28;22414;-59
2022/12/22 07:51:03;;;;;;;;;;;6.50;99.90;;;;;;5046025;28;19928;-59
2022/12/22 07:53:30;;;;;;;;;;;6.50;99.90;;;;;;5047275;28;19925;-59
2022/12/22 07:55:56;;;;;;;;;;;6.50;99.90;;;;;;5044316;28;19935;-59
2022/12/22 07:58:24;;;;;;;;;;;6.50;99.90;;;;;;5045623;28;20016;-59
2022/12/22 08:00:51;;;;;;;;;;;6.50;99.90;;;;;;5043693;28;20287;-59
2022/12/22 08:03:18;;;;;;;;;;;6.50;99.90;;;;;;5044188;28;19960;-59
2022/12/22 08:05:45;;;;;;;;;;;6.50;99.90;;;;;;5040059;28;19935;-59
2022/12/22 08:08:11;;;;;;;;;;;6.50;99.90;;;;;;5046466;28;19947;-59
2022/12/22 08:10:38;;;;;;;;;;;6.50;99.90;;;;;;5043686;28;19933;-59
2022/12/22 08:13:05;;;;;;;;;;;6.50;99.90;;;;;;5040537;28;20481;-59
2022/12/22 08:15:33;;;;;;;;;;;6.50;99.90;;;;;;5044711;28;19947;-59
2022/12/22 08:18:00;;;;;;;;;;;6.50;99.90;;;;;;5042339;28;19940;-59
2022/12/22 08:20:27;;;;;;;;;;;6.50;99.90;;;;;;5046762;28;19928;-59
2022/12/22 08:22:54;;;;;;;;;;;6.50;99.90;;;;;;5047376;28;20276;-59
2022/12/22 08:25:20;;;;;;;;;;;6.50;99.90;;;;;;5048635;28;20383;-59
2022/12/22 08:27:48;;;;;;;;;;;6.50;99.90;;;;;;5048398;28;19940;-59
2022/12/22 08:30:15;;;;;;;;;;;6.50;99.90;;;;;;5042390;28;19947;-59
2022/12/22 08:32:46;;;;;;;;;;;6.50;99.90;;;;;;5033189;28;20018;-56
2022/12/22 08:35:13;;;;;;;;;;;6.60;99.90;;;;;;5046832;28;19990;-59
2022/12/22 08:37:42;;;;;;;;;;;6.60;99.90;;;;;;5046034;28;19952;-59
2022/12/22 08:40:12;;;;;;;;;;;6.60;99.90;;;;;;5063001;28;19971;-59
2022/12/22 08:42:39;;;;;;;;;;;6.60;99.90;;;;;;5061073;28;20016;-59
2022/12/22 08:45:08;;;;;;;;;;;6.60;99.90;;;;;;5040821;28;20019;-60
2022/12/22 08:47:34;;;;;;;;;;;6.60;99.90;;;;;;5048845;28;19931;-59
2022/12/22 08:50:03;;;;;;;;;;;6.60;99.90;;;;;;5050500;28;19950;-60
2022/12/22 08:52:30;;;;;;;;;;;6.60;99.90;;;;;;5050056;28;19960;-59
2022/12/22 08:54:57;;;;;;;;;;;6.60;99.90;;;;;;5050825;28;19929;-60
2022/12/22 08:57:23;;;;;;;;;;;6.60;99.90;;;;;;5048993;28;19933;-58
2022/12/22 08:59:50;;;;;;;;;;;6.60;99.90;;;;;;5056761;28;20028;-59
2022/12/22 09:02:17;;;;;;;;;;;6.60;99.90;;;;;;5051960;28;20027;-59
2022/12/22 09:04:44;;;;;;;;;;;6.60;99.90;;;;;;5057316;28;19925;-59
2022/12/22 09:07:12;;;;;;;;;;;6.70;99.90;;;;;;5048954;28;19931;-59
2022/12/22 09:09:39;;;;;;;;;;;6.70;99.90;;;;;;5052288;28;20033;-58
2022/12/22 09:12:06;;;;;;;;;;;6.70;99.90;;;;;;5061473;28;20022;-58
2022/12/22 09:14:33;;;;;;;;;;;6.70;99.90;;;;;;5050630;28;20093;-59
2022/12/22 09:17:00;;;;;;;;;;;6.70;99.90;;;;;;5054934;28;20398;-59
2022/12/22 09:19:26;;;;;;;;;;;6.70;99.90;;;;;;5049221;28;20464;-58
2022/12/22 09:21:54;;;;;;;;;;;6.70;99.90;;;;;;5049392;28;20444;-59
2022/12/22 09:24:22;;;;;;;;;;;6.70;99.90;;;;;;5084879;28;20284;-59
2022/12/22 09:26:49;;;;;;;;;;;6.80;99.90;;;;;;5054890;28;20462;-59
2022/12/22 09:29:16;;;;;;;;;;;6.80;99.90;;;;;;5056610;28;19931;-59
2022/12/22 09:31:43;;;;;;;;;;;6.80;99.90;;;;;;5047985;28;19933;-58
2022/12/22 09:34:10;;;;;;;;;;;6.80;99.90;;;;;;5054067;28;19933;-59
2022/12/22 09:36:39;;;;;;;;;;;6.80;99.90;;;;;;5058230;28;19936;-59
2022/12/22 09:39:07;;;;;;;;;;;6.80;99.90;;;;;;5052260;28;19944;-59
2022/12/22 09:41:37;;;;;;;;;;;6.80;99.90;;;;;;5051430;28;20019;-58
2022/12/22 09:44:04;;;;;;;;;;;6.80;99.90;;;;;;5053210;28;19936;-58
2022/12/22 09:46:33;;;;;;;;;;;6.80;99.90;;;;;;5053695;28;20422;-59
2022/12/22 09:48:59;;;;;;;;;;;6.80;99.90;;;;;;5043986;28;19932;-59
2022/12/22 09:51:26;;;;;;;;;;;6.80;99.90;;;;;;5054558;28;20454;-59
2022/12/22 09:53:54;;;;;;;;;;;6.80;99.90;;;;;;5048583;28;19936;-60
2022/12/22 09:56:22;;;;;;;;;;;6.90;99.90;;;;;;5047301;28;19971;-60
2022/12/22 09:58:50;;;;;;;;;;;6.90;99.90;;;;;;5055635;28;19928;-59
2022/12/22 10:01:25;;;;;;;;;;;6.90;99.90;;;;;;5052201;28;19925;-59
2022/12/22 10:03:54;;;;;;;;;;;6.90;99.90;;;;;;5084566;28;20015;-58
2022/12/22 10:06:25;;;;;;;;;;;6.90;99.90;;;;;;5078285;22;19924;-77
2022/12/22 10:08:53;;;;;;;;;;;6.90;99.90;;;;;;5092371;22;19968;-55
2022/12/22 10:11:20;;;;;;;;;;;6.90;99.90;;;;;;5081110;28;19940;-56
2022/12/22 10:13:47;;;;;;;;;;;6.90;99.90;;;;;;5080730;28;19924;-56
2022/12/22 10:16:20;;;;;;;;;;;6.90;99.90;;;;;;5072911;28;19951;-56
2022/12/22 10:18:58;;;;;;;;;;;6.90;99.90;;;;;;5056367;28;20019;-56
2022/12/22 10:21:25;;;;;;;;;;;7.00;99.90;;;;;;5056787;28;20019;-56
2022/12/22 10:23:52;;;;;;;;;;;6.90;99.90;;;;;;5059694;28;20025;-56
2022/12/22 10:26:20;;;;;;;;;;;6.90;99.90;;;;;;5055449;28;19929;-55
2022/12/22 10:28:49;;;;;;;;;;;6.90;99.90;;;;;;5055371;28;19925;-56
2022/12/22 10:31:17;;;;;;;;;;;7.00;99.90;;;;;;5054168;28;19939;-56
2022/12/22 10:33:47;;;;;;;;;;;7.00;99.90;;;;;;5057756;28;19932;-56
2022/12/22 10:36:14;;;;;;;;;;;7.00;99.90;;;;;;5064107;28;20135;-55
2022/12/22 10:38:52;;;;;;;;;;;7.00;99.90;;;;;;5057611;28;19943;-56
2022/12/22 10:41:20;;;;;;;;;;;7.00;99.90;;;;;;5065451;28;19928;-56
2022/12/22 10:43:49;;;;;;;;;;;7.00;99.90;;;;;;5065831;28;19928;-60
2022/12/22 10:46:16;;;;;;;;;;;7.00;99.90;;;;;;5056466;28;19964;-59
2022/12/22 10:48:42;;;;;;;;;;;7.00;99.90;;;;;;5061216;28;19928;-55
2022/12/22 10:51:12;;;;;;;;;;;7.00;99.90;;;;;;5059794;28;19932;-54
2022/12/22 10:53:44;;;;;;;;;;;7.10;99.90;;;;;;5063287;28;19935;-57
2022/12/22 10:56:18;;;;;;;;;;;7.10;99.90;;;;;;5058821;28;20005;-57
2022/12/22 10:58:49;;;;;;;;;;;7.10;99.90;;;;;;5057099;28;20018;-57
2022/12/22 11:01:23;;;;;;;;;;;7.20;99.90;;;;;;5063022;28;19932;-57
2022/12/22 11:03:49;;;;;;;;;;;7.10;99.90;;;;;;5058485;28;19932;-57
2022/12/22 11:06:19;;;;;;;;;;;7.10;99.90;;;;;;5062085;28;19979;-57
2022/12/22 11:08:46;;;;;;;;;;;7.20;99.90;;;;;;5059218;28;20303;-57
2022/12/22 11:11:16;;;;;;;;;;;7.20;99.90;;;;;;5060564;28;19932;-57
2022/12/22 11:13:47;;;;;;;;;;;7.20;99.90;;;;;;5061790;28;21330;-57
2022/12/22 11:16:17;;;;;;;;;;;7.20;99.90;;;;;;5077504;28;19956;-57
2022/12/22 11:18:51;;;;;;;;;;;7.20;99.90;;;;;;5059949;28;19943;-57
2022/12/22 11:21:22;;;;;;;;;;;7.20;99.90;;;;;;5059215;28;19929;-57
2022/12/22 11:23:54;;;;;;;;;;;7.20;99.90;;;;;;5061020;28;19971;-57
2022/12/22 11:26:25;;;;;;;;;;;7.20;99.90;;;;;;5068337;28;19930;-56
2022/12/22 11:29:05;;;;;;;;;;;7.20;99.90;;;;;;5068060;28;19932;-57
2022/12/22 11:31:39;;;;;;;;;;;7.30;99.90;;;;;;5060823;28;20418;-57
2022/12/22 11:34:12;;;;;;;;;;;7.20;99.90;;;;;;5058195;28;20376;-53
2022/12/22 11:36:50;;;;;;;;;;;7.30;99.90;;;;;;5062670;28;19932;-54
2022/12/22 11:39:20;;;;;;;;;;;7.20;99.90;;;;;;5065491;28;19934;-52
2022/12/22 11:41:57;;;;;;;;;;;7.20;99.90;;;;;;5061157;28;19946;-52
2022/12/22 11:44:30;;;;;;;;;;;7.30;99.90;;;;;;5058805;28;20426;-53
2022/12/22 11:47:02;;;;;;;;;;;7.30;99.90;;;;;;5077448;28;19940;-53
2022/12/22 11:49:37;;;;;;;;;;;7.30;99.90;;;;;;5058768;28;19935;-54
2022/12/22 11:52:13;;;;;;;;;;;7.30;99.90;;;;;;5059945;28;20007;-51
2022/12/22 11:54:42;;;;;;;;;;;7.30;99.90;;;;;;5058769;28;20020;-52
2022/12/22 11:57:14;;;;;;;;;;;7.30;99.90;;;;;;5060387;28;20030;-52
2022/12/22 11:59:44;;;;;;;;;;;7.30;99.90;;;;;;5060112;28;19932;-54
2022/12/22 12:02:22;;;;;;;;;;;7.30;99.90;;;;;;5057223;28;19925;-54
2022/12/22 12:05:07;;;;;;;;;;;7.30;99.90;;;;;;5082964;28;19924;-52
2022/12/22 12:07:37;;;;;;;;;;;7.40;99.90;;;;;;5058156;28;19938;-54
2022/12/22 12:10:12;;;;;;;;;;;7.40;99.90;;;;;;5059430;28;19928;-54
2022/12/22 12:12:46;;;;;;;;;;;7.40;99.90;;;;;;5064602;28;19986;-53
2022/12/22 12:15:22;;;;;;;;;;;7.40;99.90;;;;;;5080431;28;19931;-54
2022/12/22 12:17:57;;;;;;;;;;;7.40;99.90;;;;;;5079285;28;19925;-52
2022/12/22 12:20:29;;;;;;;;;;;7.40;99.90;;;;;;5059601;28;20015;-55
2022/12/22 12:23:03;;;;;;;;;;;7.40;99.90;;;;;;5067987;28;19925;-54
2022/12/22 12:25:32;;;;;;;;;;;7.40;99.90;;;;;;5056483;28;19948;-54
2022/12/22 12:28:06;;;;;;;;;;;7.40;99.90;;;;;;5055623;28;19968;-54
2022/12/22 12:30:35;;;;;;;;;;;7.40;99.90;;;;;;5066368;28;19928;-53
2022/12/22 12:33:06;;;;;;;;;;;7.50;99.90;;;;;;5078733;28;20412;-54
2022/12/22 12:35:43;;;;;;;;;;;7.50;99.90;;;;;;5060692;28;20023;-52
2022/12/22 12:38:14;;;;;;;;;;;7.50;99.90;;;;;;5063349;28;19925;-54
2022/12/22 12:40:46;;;;;;;;;;;7.50;99.90;;;;;;5057440;28;20285;-54
2022/12/22 12:43:13;;;;;;;;;;;7.50;99.90;;;;;;5059656;28;20185;-55
2022/12/22 12:45:40;;;;;;;;;;;7.50;99.90;;;;;;5058352;28;19978;-55
2022/12/22 12:48:25;;;;;;;;;;;7.50;99.90;;;;;;5059648;28;20032;-52
2022/12/22 12:50:52;;;;;;;;;;;7.50;99.90;;;;;;5056959;28;19982;-52
2022/12/22 12:53:21;;;;;;;;;;;7.60;99.90;;;;;;5056778;28;21873;-55
2022/12/22 12:55:53;;;;;;;;;;;7.60;99.90;;;;;;5057363;28;19925;-52
2022/12/22 12:58:38;;;;;;;;;;;7.60;99.90;;;;;;5057605;28;19960;-52
2022/12/22 13:01:07;;;;;;;;;;;7.60;99.90;;;;;;5057057;28;19924;-55
2022/12/22 13:03:38;;;;;;;;;;;7.60;99.90;;;;;;5058440;28;19928;-54
2022/12/22 13:06:06;;;;;;;;;;;7.60;99.90;;;;;;5059888;28;19928;-54
2022/12/22 13:08:55;;;;;;;;;;;7.60;99.90;;;;;;5057704;28;20036;-54
2022/12/22 13:11:33;;;;;;;;;;;7.70;99.90;;;;;;5063492;28;19931;-52
2022/12/22 13:14:00;;;;;;;;;;;7.60;99.90;;;;;;5063192;28;19967;-52
2022/12/22 13:16:34;;;;;;;;;;;7.70;99.90;;;;;;5060826;28;20380;-54
2022/12/22 13:19:10;;;;;;;;;;;7.70;99.90;;;;;;5060876;28;20010;-55
2022/12/22 13:21:39;;;;;;;;;;;7.70;99.90;;;;;;5059441;28;19955;-54
2022/12/22 13:24:13;;;;;;;;;;;7.70;99.90;;;;;;5059334;28;20455;-54
2022/12/22 13:26:42;;;;;;;;;;;7.70;99.90;;;;;;5058775;28;19986;-52
2022/12/22 13:29:14;;;;;;;;;;;7.70;99.90;;;;;;5055073;28;19925;-53
2022/12/22 13:31:42;;;;;;;;;;;7.70;99.90;;;;;;5061308;28;20356;-54
2022/12/22 13:34:25;;;;;;;;;;;7.70;99.90;;;;;;5061206;28;20299;-52
2022/12/22 13:36:52;;;;;;;;;;;7.80;99.90;;;;;;5061270;28;20294;-53
2022/12/22 13:39:20;;;;;;;;;;;7.80;99.90;;;;;;5062685;28;19967;-52
2022/12/22 13:41:49;;;;;;;;;;;7.80;99.90;;;;;;5059993;28;20425;-53
2022/12/22 13:44:19;;;;;;;;;;;7.80;99.90;;;;;;5059494;28;20007;-52
2022/12/22 13:46:46;;;;;;;;;;;7.80;99.90;;;;;;5065605;28;20383;-52
2022/12/22 13:49:15;;;;;;;;;;;7.80;99.90;;;;;;5054141;28;19931;-54
2022/12/22 13:51:42;;;;;;;;;;;7.80;99.90;;;;;;5057499;28;19979;-53
2022/12/22 13:54:12;;;;;;;;;;;7.80;99.90;;;;;;5060662;28;19929;-54
2022/12/22 13:56:41;;;;;;;;;;;7.80;99.90;;;;;;5062702;28;19982;-52
2022/12/22 13:59:17;;;;;;;;;;;7.90;99.90;;;;;;5055374;28;20040;-53
2022/12/22 14:01:48;;;;;;;;;;;7.80;99.90;;;;;;5057295;28;20409;-52
2022/12/22 14:04:15;;;;;;;;;;;7.90;99.90;;;;;;5057376;28;20015;-53
2022/12/22 14:06:42;;;;;;;;;;;7.90;99.90;;;;;;5059889;28;19956;-53
2022/12/22 14:09:09;;;;;;;;;;;7.90;99.90;;;;;;5068341;28;20047;-52
2022/12/22 14:11:36;;;;;;;;;;;7.90;99.90;;;;;;5067325;28;20031;-53
2022/12/22 14:14:06;;;;;;;;;;;7.90;99.90;;;;;;5062678;28;19932;-53
2022/12/22 14:16:34;;;;;;;;;;;7.90;99.90;;;;;;5053903;28;20496;-53
2022/12/22 14:19:01;;;;;;;;;;;7.90;99.90;;;;;;5068853;28;20576;-53
2022/12/22 14:21:28;;;;;;;;;;;7.90;99.90;;;;;;5062121;28;19925;-55
2022/12/22 14:23:55;;;;;;;;;;;7.90;99.90;;;;;;5060918;28;19928;-52
2022/12/22 14:26:23;;;;;;;;;;;7.90;99.90;;;;;;5061155;28;19997;-53
2022/12/22 14:28:53;;;;;;;;;;;7.90;99.90;;;;;;5061606;28;19932;-55
2022/12/22 14:31:20;;;;;;;;;;;7.90;99.90;;;;;;5063061;28;19928;-52
2022/12/22 14:33:53;;;;;;;;;;;7.90;99.90;;;;;;5056025;28;19967;-53
2022/12/22 14:36:22;;;;;;;;;;;8.00;99.90;;;;;;5066622;28;19928;-53
2022/12/22 14:38:50;;;;;;;;;;;8.00;99.90;;;;;;5064277;28;20070;-54
2022/12/22 14:44:00;;;;;;;;;;;8.00;99.90;;;;;;5068049;28;19924;-54
2022/12/22 14:46:26;;;;;;;;;;;8.30;99.90;;;;;;5060973;28;20023;-56
2022/12/22 14:48:54;;;;;;;;;;;9.10;99.90;;;;;;5070939;28;20069;-55
2022/12/22 14:51:21;;;;;;;;;;;9.30;99.90;;;;;;5068239;28;20019;-56
2022/12/22 14:53:50;;;;;;;;;;;9.60;99.90;;;;;;5060965;28;20055;-56
2022/12/22 14:56:17;;;;;;;;;;;9.50;99.90;;;;;;5065431;28;19928;-56
2022/12/22 14:58:45;;;;;;;;;;;9.50;99.90;;;;;;5065949;28;19924;-57
2022/12/22 15:01:13;;;;;;;;;;;9.60;99.90;;;;;;5058481;28;19939;-57
2022/12/22 15:03:40;;;;;;;;;;;9.60;99.90;;;;;;5054888;28;19931;-58
2022/12/22 15:06:24;;;;;;;;;;;9.60;99.90;;;;;;5057022;28;19929;-58
2022/12/22 15:08:52;;;;;;;;;;;9.60;99.90;;;;;;5064867;28;19924;-60
2022/12/22 15:11:19;;;;;;;;;;;9.70;99.90;;;;;;5064769;28;19939;-57
2022/12/22 15:13:47;;;;;;;;;;;9.60;99.90;;;;;;5067531;28;19986;-58
2022/12/22 15:16:14;;;;;;;;;;;9.50;99.90;;;;;;5055864;28;19933;-58
2022/12/22 15:18:41;;;;;;;;;;;9.50;99.90;;;;;;5067688;22;20043;-77
2022/12/22 15:21:09;;;;;;;;;;;9.60;99.90;;;;;;5051264;28;19928;-77
2022/12/22 15:23:37;;;;;;;;;;;9.70;99.90;;;;;;5056722;28;19928;-83
2022/12/22 15:26:04;;;;;;;;;;;9.60;99.90;;;;;;5059288;28;19925;-79
2022/12/22 15:28:31;;;;;;;;;;;9.50;99.90;;;;;;5062687;28;19930;-82
2022/12/22 15:30:58;;;;;;;;;;;9.50;99.90;;;;;;5069657;28;20333;-81
2022/12/22 15:33:25;;;;;;;;;;;9.50;99.90;;;;;;5065020;28;19924;-86
2022/12/22 15:35:52;;;;;;;;;;;9.60;99.90;;;;;;5062636;28;20643;-79
2022/12/22 15:38:19;;;;;;;;;;;9.60;99.90;;;;;;5059151;28;19974;-78
2022/12/22 15:40:49;;;;;;;;;;;9.60;99.90;;;;;;5055929;28;19925;-79
2022/12/22 15:43:16;;;;;;;;;;;9.50;99.90;;;;;;5062332;28;20294;-79
2022/12/22 15:45:43;;;;;;;;;;;9.40;99.90;;;;;;5056809;28;20339;-82
2022/12/22 15:48:13;;;;;;;;;;;9.50;99.90;;;;;;5066792;28;19924;-81
2022/12/22 15:50:41;;;;;;;;;;;9.50;99.90;;;;;;5062889;28;20344;-81
2022/12/22 15:53:09;;;;;;;;;;;9.50;99.90;;;;;;5059504;28;19932;-80
2022/12/22 15:55:39;;;;;;;;;;;9.50;99.90;;;;;;5045070;28;20449;-80
2022/12/22 15:58:11;;;;;;;;;;;9.50;99.90;;;;;;5062510;28;20029;-83
2022/12/22 16:00:38;;;;;;;;;;;9.40;99.90;;;;;;5056646;28;19938;-83
2022/12/22 16:03:05;;;;;;;;;;;9.50;99.90;;;;;;5048508;28;19933;-81
2022/12/22 16:05:32;;;;;;;;;;;9.50;99.90;;;;;;5055901;28;19939;-84
2022/12/22 16:08:00;;;;;;;;;;;9.50;99.90;;;;;;5065850;28;19940;-83
2022/12/22 16:10:28;;;;;;;;;;;9.30;99.90;;;;;;5072604;28;19959;-83
2022/12/22 16:12:59;;;;;;;;;;;9.30;99.90;;;;;;5054941;28;20473;-84
2022/12/22 16:15:27;;;;;;;;;;;9.30;99.90;;;;;;5072353;28;19932;-82
2022/12/22 16:17:54;;;;;;;;;;;9.20;99.90;;;;;;5068089;28;19925;-85
2022/12/22 16:20:21;;;;;;;;;;;9.10;99.90;;;;;;5065517;28;19971;-77
2022/12/22 16:22:48;;;;;;;;;;;9.10;99.90;;;;;;5051988;28;19931;-77
2022/12/22 16:25:16;;;;;;;;;;;9.10;99.90;;;;;;5055487;28;19928;-77
2022/12/22 16:27:46;;;;;;;;;;;9.00;99.90;;;;;;5057375;28;19972;-77
2022/12/22 16:30:16;;;;;;;;;;;9.00;99.90;;;;;;5063155;28;20598;-80
2022/12/22 16:32:44;;;;;;;;;;;9.00;99.90;;;;;;5059316;28;19929;-76
2022/12/22 16:35:15;;;;;;;;;;;9.00;99.90;;;;;;5051746;28;20361;-76
2022/12/22 16:37:42;;;;;;;;;;;9.00;99.90;;;;;;5048682;28;20006;-78
2022/12/22 16:40:09;;;;;;;;;;;9.00;99.90;;;;;;5050353;28;20029;-76
2022/12/22 16:42:36;;;;;;;;;;;9.00;99.90;;;;;;5053244;28;19929;-77
2022/12/22 16:45:04;;;;;;;;;;;9.00;99.90;;;;;;5046785;28;19932;-76
2022/12/22 16:47:33;;;;;;;;;;;8.90;99.90;;;;;;5048672;28;19955;-77
2022/12/22 16:50:01;;;;;;;;;;;8.90;99.90;;;;;;5048526;28;19933;-79
2022/12/22 16:52:36;;;;;;;;;;;8.90;99.90;;;;;;5057737;28;19932;-93
2022/12/22 16:55:06;;;;;;;;;;;8.90;99.90;;;;;;5052642;28;22490;-91
2022/12/22 16:57:35;;;;;;;;;;;8.90;99.90;;;;;;5052258;28;20398;-91
2022/12/22 17:00:02;;;;;;;;;;;8.90;99.90;;;;;;5050728;28;20018;-91
2022/12/22 17:02:31;;;;;;;;;;;8.90;99.90;;;;;;5053308;28;19960;-91
2022/12/22 17:04:59;;;;;;;;;;;8.90;99.90;;;;;;5060105;28;19924;-91
2022/12/22 17:07:29;;;;;;;;;;;8.90;99.90;;;;;;5062830;28;20014;-90
2022/12/22 17:10:00;;;;;;;;;;;8.90;99.90;;;;;;5073209;28;19920;-91
2022/12/22 17:12:28;;;;;;;;;;;8.90;99.90;;;;;;5083055;28;19932;-93
2022/12/22 17:14:57;;;;;;;;;;;8.90;99.90;;;;;;5087621;28;19916;-94
2022/12/22 17:17:24;;;;;;;;;;;8.80;99.90;;;;;;5063576;28;19932;-90
2022/12/22 17:19:51;;;;;;;;;;;8.90;99.90;;;;;;5055771;28;20675;-91
2022/12/22 17:22:20;;;;;;;;;;;8.80;99.90;;;;;;5057230;28;21867;-92
2022/12/22 17:24:48;;;;;;;;;;;8.80;99.90;;;;;;5055679;28;20023;-92
2022/12/22 17:27:15;;;;;;;;;;;8.80;99.90;;;;;;5056774;28;19932;-91
2022/12/22 17:29:42;;;;;;;;;;;8.80;99.90;;;;;;5053855;28;19925;-91
2022/12/22 17:32:13;;;;;;;;;;;8.80;99.90;;;;;;5051699;28;19925;-92
2022/12/22 17:34:39;;;;;;;;;;;8.80;99.90;;;;;;5057416;28;19925;-90
2022/12/22 17:37:09;;;;;;;;;;;8.80;99.90;;;;;;5060431;28;20418;-92
2022/12/22 17:39:37;;;;;;;;;;;8.80;99.90;;;;;;5061688;28;19928;-91
2022/12/22 17:42:14;;;;;;;;;;;8.80;99.90;;;;;;5061254;28;19938;-91
2022/12/22 17:44:41;;;;;;;;;;;8.80;99.90;;;;;;5054434;28;20883;-94
2022/12/22 17:47:09;;;;;;;;;;;8.70;99.90;;;;;;5056582;28;20306;-90
2022/12/22 17:49:36;;;;;;;;;;;8.80;99.90;;;;;;5055097;28;19929;-93
2022/12/22 17:52:03;;;;;;;;;;;8.70;99.90;;;;;;5059534;28;19936;-92
2022/12/22 17:54:30;;;;;;;;;;;8.70;99.90;;;;;;5059796;28;19971;-90
2022/12/22 17:56:59;;;;;;;;;;;8.70;99.90;;;;;;5052146;28;20452;-92
2022/12/22 17:59:28;;;;;;;;;;;8.70;99.90;;;;;;5059965;28;19924;-90
2022/12/22 18:01:55;;;;;;;;;;;8.70;99.90;;;;;;5054256;28;19933;-90
2022/12/22 18:04:21;;;;;;;;;;;8.70;99.90;;;;;;5055591;28;19931;-90
2022/12/22 18:06:48;;;;;;;;;;;8.70;99.90;;;;;;5052465;28;19935;-91
2022/12/22 18:09:19;;;;;;;;;;;8.60;99.90;;;;;;5062180;28;19928;-92
2022/12/22 18:11:46;;;;;;;;;;;8.60;99.90;;;;;;5061603;28;19932;-92
2022/12/22 18:14:14;;;;;;;;;;;8.60;99.90;;;;;;5056849;28;19928;-91
2022/12/22 18:16:42;;;;;;;;;;;8.60;99.90;;;;;;5064075;28;19935;-91
2022/12/22 18:19:09;;;;;;;;;;;8.60;99.90;;;;;;5057040;28;20008;-93
2022/12/22 18:21:36;;;;;;;;;;;8.60;99.90;;;;;;5059304;28;19925;-92
2022/12/22 18:24:03;;;;;;;;;;;8.60;99.90;;;;;;5052113;28;21025;-93
2022/12/22 18:26:30;;;;;;;;;;;8.60;99.90;;;;;;5054246;28;19994;-93